createdAt,value
2023-02-06T00:00:55.639Z,94.88
2023-02-06T00:02:27.351Z,94.93
2023-02-06T00:04:00.422Z,94.86
2023-02-06T00:05:32.378Z,94.74
2023-02-06T00:07:04.071Z,95.14
2023-02-06T00:08:35.705Z,95.45
2023-02-06T00:10:08.341Z,95.67
2023-02-06T00:11:39.999Z,95.30
2023-02-06T00:13:11.614Z,95.29
2023-02-06T00:14:43.224Z,94.56
2023-02-06T00:16:16.338Z,95.05
2023-02-06T00:17:47.981Z,96.04
2023-02-06T00:19:21.002Z,95.69
2023-02-06T00:20:52.645Z,95.10
2023-02-06T00:22:24.302Z,94.94
2023-02-06T00:23:57.400Z,94.75
2023-02-06T00:25:28.973Z,95.28
2023-02-06T00:27:00.594Z,94.96
2023-02-06T00:28:32.174Z,95.12
2023-02-06T00:30:04.490Z,94.85
2023-02-06T00:31:36.314Z,94.64
2023-02-06T00:33:08.006Z,95.00
2023-02-06T00:34:41.075Z,94.13
2023-02-06T00:36:12.633Z,93.80
2023-02-06T00:37:44.268Z,93.94
2023-02-06T00:39:15.976Z,93.47
2023-02-06T00:40:47.716Z,93.84
2023-02-06T00:42:19.432Z,94.27
2023-02-06T00:43:51.225Z,93.68
2023-02-06T00:45:22.851Z,93.74
2023-02-06T00:46:54.535Z,93.43
2023-02-06T00:48:26.231Z,93.86
2023-02-06T00:49:59.312Z,93.63
2023-02-06T00:51:31.049Z,93.67
2023-02-06T00:53:02.666Z,94.75
2023-02-06T00:54:34.279Z,93.75
2023-02-06T00:56:06.215Z,94.49
2023-02-06T00:57:38.040Z,94.37
2023-02-06T00:59:09.678Z,94.46
2023-02-06T01:00:41.306Z,95.01
2023-02-06T01:02:13.035Z,94.40
2023-02-06T01:03:44.647Z,93.44
2023-02-06T01:05:17.919Z,94.15
2023-02-06T01:06:49.634Z,93.53
2023-02-06T01:08:21.246Z,94.17
2023-02-06T01:09:52.956Z,93.39
2023-02-06T01:11:25.019Z,93.44
2023-02-06T01:12:56.722Z,93.99
2023-02-06T01:14:28.409Z,93.99
2023-02-06T01:16:00.030Z,94.92
2023-02-06T01:17:32.084Z,93.98
2023-02-06T01:19:03.732Z,94.47
2023-02-06T01:20:36.715Z,94.09
2023-02-06T01:22:08.368Z,94.26
2023-02-06T01:23:40.081Z,93.25
2023-02-06T01:25:11.683Z,93.58
2023-02-06T01:26:43.306Z,93.98
2023-02-06T01:28:14.946Z,93.81
2023-02-06T01:29:46.635Z,94.23
2023-02-06T01:31:20.621Z,94.08
2023-02-06T01:32:52.487Z,94.38
2023-02-06T01:34:24.115Z,93.15
2023-02-06T01:35:57.153Z,93.92
2023-02-06T01:37:29.205Z,94.37
2023-02-06T01:39:00.937Z,94.86
2023-02-06T01:40:32.542Z,94.52
2023-02-06T01:42:04.486Z,93.82
2023-02-06T01:43:37.129Z,94.10
2023-02-06T01:45:33.237Z,93.39
2023-02-06T01:47:05.047Z,94.35
2023-02-06T01:48:38.059Z,94.49
2023-02-06T01:50:09.899Z,93.57
2023-02-06T01:51:42.925Z,94.13
2023-02-06T01:53:14.706Z,94.19
2023-02-06T01:54:48.358Z,93.68
2023-02-06T01:56:19.943Z,93.42
2023-02-06T01:57:52.259Z,93.57
2023-02-06T01:59:24.239Z,93.48
2023-02-06T02:00:56.035Z,94.21
2023-02-06T02:02:27.807Z,93.73
2023-02-06T02:04:02.458Z,94.46
2023-02-06T02:05:34.608Z,95.19
2023-02-06T02:07:10.818Z,95.11
2023-02-06T02:08:43.623Z,94.33
2023-02-06T02:10:15.394Z,94.71
2023-02-06T02:11:46.994Z,94.49
2023-02-06T02:13:18.615Z,93.98
2023-02-06T02:14:50.440Z,93.60
2023-02-06T02:16:24.454Z,92.62
2023-02-06T02:17:59.263Z,93.91
2023-02-06T02:20:03.969Z,92.89
2023-02-06T02:22:07.881Z,92.36
2023-02-06T02:23:41.907Z,93.78
2023-02-06T02:25:43.548Z,92.99
2023-02-06T02:27:29.648Z,93.02
2023-02-06T02:29:32.701Z,93.13
2023-02-06T02:31:41.948Z,92.84
2023-02-06T02:33:40.588Z,92.39
2023-02-06T02:35:31.293Z,92.73
2023-02-06T02:37:05.655Z,92.98
2023-02-06T02:38:40.991Z,92.91
2023-02-06T02:40:18.269Z,92.25
2023-02-06T02:41:52.945Z,92.64
2023-02-06T02:43:29.935Z,93.16
2023-02-06T02:45:05.029Z,93.08
2023-02-06T02:46:37.620Z,93.78
2023-02-06T02:48:11.235Z,93.68
2023-02-06T02:49:42.966Z,94.14
2023-02-06T02:51:15.931Z,93.42
2023-02-06T02:52:47.495Z,93.40
2023-02-06T02:54:19.205Z,93.65
2023-02-06T02:55:50.874Z,92.94
2023-02-06T02:57:25.959Z,92.86
2023-02-06T02:58:59.390Z,93.36
2023-02-06T03:00:31.451Z,93.83
2023-02-06T03:02:04.516Z,93.37
2023-02-06T03:03:36.501Z,94.13
2023-02-06T03:05:09.156Z,93.35
2023-02-06T03:06:49.518Z,93.86
2023-02-06T03:08:24.454Z,93.59
2023-02-06T03:10:00.713Z,93.32
2023-02-06T03:11:32.333Z,93.22
2023-02-06T03:13:05.904Z,93.33
2023-02-06T03:14:41.489Z,93.51
2023-02-06T03:16:14.528Z,93.74
2023-02-06T03:17:48.098Z,93.63
2023-02-06T03:19:20.906Z,93.38
2023-02-06T03:20:52.640Z,93.65
2023-02-06T03:22:25.780Z,93.16
2023-02-06T03:23:58.658Z,93.51
2023-02-06T03:25:33.841Z,93.86
2023-02-06T03:27:08.383Z,93.94
2023-02-06T03:28:41.755Z,93.12
2023-02-06T03:30:13.521Z,93.53
2023-02-06T03:31:46.769Z,93.98
2023-02-06T03:33:18.782Z,93.09
2023-02-06T03:34:53.591Z,93.54
2023-02-06T03:36:25.390Z,92.81
2023-02-06T03:37:58.417Z,93.14
2023-02-06T03:39:30.100Z,93.59
2023-02-06T03:41:01.799Z,92.98
2023-02-06T03:42:34.432Z,93.25
2023-02-06T03:44:08.544Z,93.45
2023-02-06T03:45:42.288Z,92.85
2023-02-06T03:47:13.966Z,93.74
2023-02-06T03:48:47.162Z,93.50
2023-02-06T03:50:18.860Z,93.29
2023-02-06T03:51:53.369Z,93.08
2023-02-06T03:53:26.383Z,93.22
2023-02-06T03:55:02.476Z,93.25
2023-02-06T03:56:35.321Z,92.72
2023-02-06T03:58:08.183Z,93.27
2023-02-06T03:59:39.844Z,93.52
2023-02-06T04:01:11.460Z,93.29
2023-02-06T04:02:43.164Z,93.50
2023-02-06T04:04:15.198Z,93.96
2023-02-06T04:05:46.878Z,93.76
2023-02-06T04:07:20.041Z,94.49
2023-02-06T04:08:53.571Z,93.88
2023-02-06T04:10:26.386Z,93.39
2023-02-06T04:11:58.298Z,94.04
2023-02-06T04:13:29.867Z,93.48
2023-02-06T04:15:01.583Z,92.74
2023-02-06T04:16:33.211Z,92.80
2023-02-06T04:18:06.101Z,93.11
2023-02-06T04:19:37.906Z,93.51
2023-02-06T04:21:09.526Z,93.76
2023-02-06T04:22:41.233Z,93.22
2023-02-06T04:24:14.186Z,93.74
2023-02-06T04:25:45.902Z,93.11
2023-02-06T04:27:17.775Z,93.70
2023-02-06T04:28:49.449Z,93.78
2023-02-06T04:30:21.475Z,94.26
2023-02-06T04:31:53.164Z,93.65
2023-02-06T04:33:25.078Z,93.28
2023-02-06T04:34:56.806Z,93.43
2023-02-06T04:36:28.462Z,93.82
2023-02-06T04:38:00.119Z,94.30
2023-02-06T04:39:33.606Z,94.26
2023-02-06T04:41:06.051Z,94.26
2023-02-06T04:42:37.802Z,94.41
2023-02-06T04:44:09.430Z,94.47
2023-02-06T04:45:41.998Z,94.58
2023-02-06T04:47:13.601Z,94.72
2023-02-06T04:48:45.275Z,94.65
2023-02-06T04:50:17.048Z,94.69
2023-02-06T04:51:48.763Z,94.27
2023-02-06T04:53:20.498Z,93.78
2023-02-06T04:54:53.556Z,93.59
2023-02-06T04:56:26.031Z,93.63
2023-02-06T04:57:57.685Z,93.70
2023-02-06T04:59:29.482Z,94.03
2023-02-06T05:01:01.158Z,94.42
2023-02-06T05:02:37.576Z,94.05
2023-02-06T05:04:09.259Z,93.65
2023-02-06T05:05:41.074Z,94.65
2023-02-06T05:07:12.676Z,94.72
2023-02-06T05:08:44.316Z,93.91
2023-02-06T05:10:17.596Z,93.74
2023-02-06T05:11:49.207Z,94.16
2023-02-06T05:13:20.856Z,93.67
2023-02-06T05:14:52.730Z,93.13
2023-02-06T05:16:30.119Z,93.85
2023-02-06T05:18:05.474Z,94.33
2023-02-06T05:19:42.441Z,93.88
2023-02-06T05:22:26.693Z,93.97
2023-02-06T05:23:56.417Z,93.80
2023-02-06T05:25:29.446Z,93.62
2023-02-06T05:27:01.434Z,94.07
2023-02-06T05:28:35.658Z,94.32
2023-02-06T05:30:08.458Z,94.08
2023-02-06T05:31:40.192Z,94.13
2023-02-06T05:33:11.924Z,93.94
2023-02-06T05:34:43.591Z,93.04
2023-02-06T05:36:15.177Z,94.31
2023-02-06T05:37:46.771Z,93.73
2023-02-06T05:39:18.371Z,93.13
2023-02-06T05:40:52.213Z,94.00
2023-02-06T05:42:23.909Z,92.67
2023-02-06T05:43:55.480Z,93.35
2023-02-06T05:45:27.282Z,93.69
2023-02-06T05:46:59.044Z,93.72
2023-02-06T05:48:30.668Z,93.82
2023-02-06T05:50:02.302Z,93.58
2023-02-06T05:51:33.967Z,93.28
2023-02-06T05:53:05.625Z,92.80
2023-02-06T05:54:37.416Z,93.26
2023-02-06T05:56:10.378Z,92.93
2023-02-06T05:57:42.100Z,92.16
2023-02-06T05:59:13.813Z,91.74
2023-02-06T06:00:45.595Z,92.08
2023-02-06T06:02:17.330Z,92.26
2023-02-06T06:03:49.003Z,91.99
2023-02-06T06:05:21.336Z,92.47
2023-02-06T06:06:53.049Z,91.95
2023-02-06T06:08:24.698Z,91.32
2023-02-06T06:09:56.945Z,91.59
2023-02-06T06:11:30.353Z,91.71
2023-02-06T06:13:01.943Z,91.21
2023-02-06T06:14:33.810Z,91.03
2023-02-06T06:16:05.702Z,91.27
2023-02-06T06:17:37.382Z,90.97
2023-02-06T06:19:09.248Z,91.08
2023-02-06T06:20:41.662Z,91.06
2023-02-06T06:22:13.349Z,91.68
2023-02-06T06:23:44.962Z,91.08
2023-02-06T06:25:16.817Z,90.75
2023-02-06T06:26:49.795Z,90.68
2023-02-06T06:28:21.413Z,89.96
2023-02-06T06:29:53.158Z,90.27
2023-02-06T06:31:25.036Z,90.03
2023-02-06T06:32:57.025Z,90.52
2023-02-06T06:34:28.858Z,89.84
2023-02-06T06:36:00.775Z,90.12
2023-02-06T06:37:32.442Z,90.66
2023-02-06T06:39:04.073Z,90.85
2023-02-06T06:40:35.729Z,90.22
2023-02-06T06:42:08.814Z,90.11
2023-02-06T06:43:40.835Z,90.45
2023-02-06T06:45:13.800Z,90.61
2023-02-06T06:46:45.462Z,90.40
2023-02-06T06:48:17.122Z,90.58
2023-02-06T06:49:48.731Z,90.48
2023-02-06T06:51:20.811Z,90.38
2023-02-06T06:52:52.481Z,90.51
2023-02-06T06:54:24.087Z,90.22
2023-02-06T06:55:55.844Z,90.75
2023-02-06T06:57:30.461Z,90.40
2023-02-06T06:59:02.227Z,90.35
2023-02-06T07:00:33.876Z,90.42
2023-02-06T07:02:05.732Z,89.64
2023-02-06T07:03:37.440Z,90.35
2023-02-06T07:05:09.154Z,90.28
2023-02-06T07:06:40.818Z,89.51
2023-02-06T07:08:12.742Z,89.26
2023-02-06T07:09:44.431Z,88.90
2023-02-06T07:11:16.894Z,89.18
2023-02-06T07:12:53.398Z,89.10
2023-02-06T07:14:25.267Z,89.04
2023-02-06T07:15:56.910Z,88.95
2023-02-06T07:17:28.557Z,88.94
2023-02-06T07:19:00.212Z,88.93
2023-02-06T07:20:39.515Z,89.12
2023-02-06T07:22:11.331Z,88.81
2023-02-06T07:23:42.980Z,87.77
2023-02-06T07:25:15.025Z,88.62
2023-02-06T07:26:46.655Z,88.66
2023-02-06T07:28:21.800Z,88.60
2023-02-06T07:29:53.518Z,87.54
2023-02-06T07:31:25.130Z,88.12
2023-02-06T07:32:56.928Z,88.32
2023-02-06T07:34:28.585Z,87.38
2023-02-06T07:36:02.618Z,87.45
2023-02-06T07:37:35.199Z,86.63
2023-02-06T07:39:06.841Z,87.50
2023-02-06T07:40:46.140Z,87.19
2023-02-06T07:42:18.857Z,87.10
2023-02-06T07:43:54.161Z,86.53
2023-02-06T07:45:26.930Z,87.31
2023-02-06T07:46:58.740Z,86.85
2023-02-06T07:48:30.530Z,87.48
2023-02-06T07:50:04.273Z,87.20
2023-02-06T07:51:35.988Z,85.70
2023-02-06T07:53:07.932Z,85.86
2023-02-06T07:54:39.645Z,86.86
2023-02-06T07:56:12.592Z,86.31
2023-02-06T07:57:44.208Z,86.55
2023-02-06T07:59:17.187Z,86.06
2023-02-06T08:00:48.817Z,85.12
2023-02-06T08:02:20.482Z,86.32
2023-02-06T08:03:52.321Z,86.27
2023-02-06T08:05:24.102Z,86.51
2023-02-06T08:06:55.708Z,85.79
2023-02-06T08:08:27.374Z,86.23
2023-02-06T08:09:59.045Z,85.57
2023-02-06T08:11:31.084Z,86.66
2023-02-06T08:13:02.746Z,86.54
2023-02-06T08:14:35.834Z,86.06
2023-02-06T08:16:08.794Z,86.27
2023-02-06T08:17:42.723Z,86.09
2023-02-06T08:19:14.331Z,85.82
2023-02-06T08:20:45.994Z,85.92
2023-02-06T08:22:17.625Z,86.17
2023-02-06T08:23:53.984Z,85.66
2023-02-06T08:25:25.816Z,85.85
2023-02-06T08:26:58.184Z,86.35
2023-02-06T08:28:30.011Z,85.28
2023-02-06T08:30:03.162Z,85.94
2023-02-06T08:31:36.100Z,85.30
2023-02-06T08:33:07.849Z,86.52
2023-02-06T08:34:40.435Z,86.22
2023-02-06T08:36:12.498Z,86.79
2023-02-06T08:37:44.142Z,87.55
2023-02-06T08:39:15.896Z,87.25
2023-02-06T08:40:47.512Z,87.63
2023-02-06T08:42:19.254Z,86.57
2023-02-06T08:43:51.920Z,87.57
2023-02-06T08:45:24.877Z,86.37
2023-02-06T08:47:09.309Z,87.79
2023-02-06T08:48:41.820Z,87.95
2023-02-06T08:50:13.487Z,87.45
2023-02-06T08:51:45.334Z,87.23
2023-02-06T08:53:16.941Z,86.74
2023-02-06T08:54:50.182Z,87.03
2023-02-06T08:56:21.885Z,86.89
2023-02-06T08:57:53.540Z,85.65
2023-02-06T08:59:25.221Z,85.20
2023-02-06T09:00:59.992Z,85.16
2023-02-06T09:02:31.641Z,85.67
2023-02-06T09:04:06.602Z,86.26
2023-02-06T09:05:38.342Z,85.82
2023-02-06T09:07:10.104Z,86.42
2023-02-06T09:08:41.863Z,85.22
2023-02-06T09:10:26.769Z,85.99
2023-02-06T09:12:03.761Z,86.29
2023-02-06T09:13:35.448Z,86.13
2023-02-06T09:15:08.145Z,85.74
2023-02-06T09:16:41.120Z,85.27
2023-02-06T09:18:12.708Z,85.41
2023-02-06T09:19:44.632Z,85.49
2023-02-06T09:21:17.274Z,85.22
2023-02-06T09:22:48.917Z,86.36
2023-02-06T09:24:20.589Z,85.96
2023-02-06T09:25:52.207Z,85.70
2023-02-06T09:27:23.891Z,84.81
2023-02-06T09:28:57.722Z,84.84
2023-02-06T09:30:29.543Z,84.94
2023-02-06T09:32:02.640Z,85.22
2023-02-06T09:33:34.302Z,85.31
2023-02-06T09:35:06.687Z,85.52
2023-02-06T09:36:38.366Z,85.06
2023-02-06T09:38:10.208Z,84.99
2023-02-06T09:39:42.010Z,84.46
2023-02-06T09:41:17.127Z,85.42
2023-02-06T09:42:48.753Z,85.15
2023-02-06T09:44:21.689Z,85.58
2023-02-06T09:45:56.092Z,84.97
2023-02-06T09:47:30.209Z,84.41
2023-02-06T09:49:03.375Z,85.78
2023-02-06T09:50:39.718Z,84.29
2023-02-06T09:52:20.801Z,85.02
2023-02-06T09:53:57.759Z,83.72
2023-02-06T09:55:31.685Z,84.03
2023-02-06T09:57:06.302Z,85.18
2023-02-06T09:58:41.373Z,85.06
2023-02-06T10:00:22.142Z,85.37
2023-02-06T10:02:00.219Z,84.30
2023-02-06T10:03:43.929Z,84.44
2023-02-06T10:05:19.628Z,85.25
2023-02-06T10:06:54.060Z,84.50
2023-02-06T10:08:29.067Z,84.66
2023-02-06T10:10:02.523Z,84.79
2023-02-06T10:11:42.425Z,84.19
2023-02-06T10:13:16.951Z,84.46
2023-02-06T10:14:50.872Z,84.40
2023-02-06T10:16:31.925Z,84.92
2023-02-06T10:18:06.559Z,84.40
2023-02-06T10:19:41.229Z,84.57
2023-02-06T10:21:20.361Z,85.10
2023-02-06T10:22:59.761Z,83.34
2023-02-06T10:24:34.424Z,84.74
2023-02-06T10:26:07.829Z,84.02
2023-02-06T10:27:42.554Z,83.86
2023-02-06T10:29:18.393Z,83.91
2023-02-06T10:30:59.154Z,83.57
2023-02-06T10:32:38.100Z,81.75
2023-02-06T10:34:17.569Z,83.15
2023-02-06T10:35:53.193Z,82.25
2023-02-06T10:37:35.232Z,82.27
2023-02-06T10:39:37.022Z,81.51
2023-02-06T10:41:11.626Z,82.29
2023-02-06T10:42:48.124Z,83.18
2023-02-06T10:44:22.549Z,80.02
2023-02-06T10:45:57.546Z,81.92
2023-02-06T10:47:32.331Z,81.55
2023-02-06T10:49:06.650Z,80.87
2023-02-06T10:50:39.903Z,81.78
2023-02-06T10:52:22.330Z,80.90
2023-02-06T10:53:54.830Z,81.62
2023-02-06T10:55:27.858Z,82.42
2023-02-06T10:56:59.450Z,82.07
2023-02-06T10:58:33.435Z,82.45
2023-02-06T11:00:12.126Z,81.89
2023-02-06T11:01:43.884Z,82.55
2023-02-06T11:03:17.646Z,81.11
2023-02-06T11:04:52.367Z,81.42
2023-02-06T11:06:25.077Z,81.56
2023-02-06T11:08:03.116Z,81.22
2023-02-06T11:09:34.770Z,82.21
2023-02-06T11:11:18.221Z,80.63
2023-02-06T11:12:52.196Z,82.08
2023-02-06T11:14:25.309Z,80.03
2023-02-06T11:16:01.100Z,81.39
2023-02-06T11:17:34.410Z,82.01
2023-02-06T11:19:15.261Z,82.39
2023-02-06T11:23:42.342Z,80.81
2023-02-06T11:25:20.682Z,81.80
2023-02-06T11:26:55.041Z,82.69
2023-02-06T11:28:26.665Z,82.13
2023-02-06T11:29:58.292Z,81.19
2023-02-06T11:31:39.297Z,81.25
2023-02-06T11:33:19.549Z,81.69
2023-02-06T11:34:53.571Z,81.16
2023-02-06T11:36:27.309Z,82.24
2023-02-06T11:38:07.285Z,82.24
2023-02-06T11:39:40.334Z,82.07
2023-02-06T11:41:17.028Z,82.08
2023-02-06T11:42:50.144Z,81.30
2023-02-06T11:44:24.412Z,81.62
2023-02-06T11:46:07.511Z,81.30
2023-02-06T11:47:39.166Z,81.88
2023-02-06T11:49:25.072Z,81.88
2023-02-06T11:50:56.703Z,81.53
2023-02-06T11:52:30.131Z,83.30
2023-02-06T11:54:03.501Z,80.92
2023-02-06T11:55:37.883Z,82.00
2023-02-06T11:57:20.776Z,81.99
2023-02-06T11:59:02.103Z,81.92
2023-02-06T12:00:35.934Z,82.49
2023-02-06T12:02:24.791Z,82.41
2023-02-06T12:03:57.557Z,81.60
2023-02-06T12:05:33.215Z,81.27
2023-02-06T12:07:22.651Z,81.63
2023-02-06T12:08:55.264Z,80.39
2023-02-06T12:10:27.006Z,80.74
2023-02-06T12:12:01.943Z,80.91
2023-02-06T12:13:36.564Z,80.94
2023-02-06T12:15:45.610Z,80.93
2023-02-06T12:17:03.763Z,79.82
2023-02-06T12:18:37.139Z,79.67
2023-02-06T12:20:14.421Z,80.28
2023-02-06T12:21:48.053Z,80.44
2023-02-06T12:23:22.453Z,79.39
2023-02-06T12:24:55.355Z,79.83
2023-02-06T12:26:29.105Z,80.14
2023-02-06T12:28:06.264Z,80.02
2023-02-06T12:29:40.305Z,79.13
2023-02-06T12:31:15.722Z,78.38
2023-02-06T12:32:49.976Z,80.00
2023-02-06T12:34:23.338Z,77.81
2023-02-06T12:35:56.159Z,78.75
2023-02-06T12:37:31.889Z,76.66
2023-02-06T12:39:05.455Z,77.22
2023-02-06T12:40:40.805Z,78.18
2023-02-06T12:42:21.995Z,80.14
2023-02-06T12:43:56.764Z,79.88
2023-02-06T12:45:34.175Z,78.80
2023-02-06T12:47:07.834Z,79.68
2023-02-06T12:48:45.669Z,79.28
2023-02-06T12:50:20.158Z,79.95
2023-02-06T12:51:54.588Z,79.24
2023-02-06T12:53:28.086Z,79.86
2023-02-06T12:55:05.572Z,79.45
2023-02-06T12:56:38.932Z,78.58
2023-02-06T12:58:25.228Z,79.39
2023-02-06T13:00:07.657Z,80.52
2023-02-06T13:01:48.984Z,81.03
2023-02-06T13:03:29.275Z,80.32
2023-02-06T13:05:05.739Z,81.10
2023-02-06T13:06:43.726Z,82.06
2023-02-06T13:08:16.565Z,81.00
2023-02-06T13:09:49.636Z,80.47
2023-02-06T13:11:28.705Z,79.81
2023-02-06T13:13:00.400Z,79.84
2023-02-06T13:14:31.968Z,80.95
2023-02-06T13:16:05.951Z,79.87
2023-02-06T13:17:39.122Z,80.00
2023-02-06T13:19:24.055Z,80.64
2023-02-06T13:21:24.043Z,80.00
2023-02-06T13:23:10.420Z,80.74
2023-02-06T13:24:43.207Z,81.45
2023-02-06T13:26:14.846Z,80.46
2023-02-06T13:27:46.522Z,80.74
2023-02-06T13:29:25.321Z,81.11
2023-02-06T13:31:00.187Z,79.62
2023-02-06T13:32:46.238Z,81.11
2023-02-06T13:34:17.960Z,81.06
2023-02-06T13:35:58.901Z,80.32
2023-02-06T13:37:37.232Z,81.01
2023-02-06T13:39:23.069Z,79.69
2023-02-06T13:41:34.362Z,80.63
2023-02-06T13:43:13.874Z,81.17
2023-02-06T13:44:45.561Z,79.63
2023-02-06T13:46:18.617Z,79.49
2023-02-06T13:48:24.508Z,78.67
2023-02-06T13:50:25.373Z,78.76
2023-02-06T13:51:58.630Z,80.12
2023-02-06T13:53:46.123Z,79.92
2023-02-06T13:55:24.102Z,79.48
2023-02-06T13:57:19.488Z,79.81
2023-02-06T13:58:51.626Z,78.41
2023-02-06T14:00:24.870Z,77.54
2023-02-06T14:01:56.629Z,78.45
2023-02-06T14:03:31.592Z,78.85
2023-02-06T14:05:04.213Z,78.46
2023-02-06T14:06:51.554Z,78.57
2023-02-06T14:08:24.617Z,79.06
2023-02-06T14:10:09.160Z,79.04
2023-02-06T14:12:08.279Z,78.24
2023-02-06T14:13:53.669Z,78.31
2023-02-06T14:15:32.949Z,79.30
2023-02-06T14:17:09.031Z,79.61
2023-02-06T14:18:44.701Z,79.84
2023-02-06T14:20:23.913Z,79.38
2023-02-06T14:21:59.460Z,79.19
2023-02-06T14:23:37.787Z,78.89
2023-02-06T14:25:16.092Z,78.74
2023-02-06T14:26:50.709Z,79.66
2023-02-06T14:28:26.926Z,79.00
2023-02-06T14:30:06.135Z,79.60
2023-02-06T14:31:59.343Z,79.45
2023-02-06T14:33:47.174Z,79.65
2023-02-06T14:35:27.701Z,78.75
2023-02-06T14:37:17.038Z,79.17
2023-02-06T14:39:24.739Z,81.31
2023-02-06T14:40:56.641Z,80.36
2023-02-06T14:42:31.324Z,79.52
2023-02-06T14:44:03.245Z,80.29
2023-02-06T14:45:41.782Z,79.41
2023-02-06T14:47:17.302Z,79.90
2023-02-06T14:48:54.318Z,80.48
2023-02-06T14:50:28.519Z,79.55
2023-02-06T14:52:00.187Z,80.37
2023-02-06T14:53:33.178Z,81.00
2023-02-06T14:55:28.573Z,80.71
2023-02-06T14:57:01.585Z,79.42
2023-02-06T14:58:33.567Z,80.62
2023-02-06T15:00:13.122Z,80.73
2023-02-06T15:01:45.979Z,79.65
2023-02-06T15:03:18.675Z,80.75
2023-02-06T15:04:51.760Z,79.94
2023-02-06T15:06:31.949Z,80.88
2023-02-06T15:08:04.583Z,80.57
2023-02-06T15:09:44.025Z,79.93
2023-02-06T15:11:20.064Z,81.09
2023-02-06T15:12:52.364Z,80.42
2023-02-06T15:14:25.480Z,81.59
2023-02-06T15:15:57.352Z,79.68
2023-02-06T15:17:29.964Z,79.85
2023-02-06T15:19:12.061Z,80.80
2023-02-06T15:20:45.853Z,80.61
2023-02-06T15:22:21.230Z,80.41
2023-02-06T15:23:58.349Z,80.54
2023-02-06T15:25:36.178Z,79.58
2023-02-06T15:27:11.130Z,79.94
2023-02-06T15:28:42.757Z,80.57
2023-02-06T15:30:18.853Z,80.50
2023-02-06T15:31:51.363Z,80.23
2023-02-06T15:33:25.367Z,80.41
2023-02-06T15:34:57.578Z,79.99
2023-02-06T15:36:33.834Z,80.12
2023-02-06T15:38:06.489Z,80.46
2023-02-06T15:39:40.340Z,79.82
2023-02-06T15:41:12.175Z,79.94
2023-02-06T15:42:43.838Z,78.56
2023-02-06T15:44:23.694Z,79.90
2023-02-06T15:45:56.351Z,80.24
2023-02-06T15:47:28.051Z,80.01
2023-02-06T15:48:59.850Z,80.44
2023-02-06T15:50:31.612Z,79.99
2023-02-06T15:52:07.626Z,80.07
2023-02-06T15:53:39.939Z,79.97
2023-02-06T15:55:28.662Z,80.25
2023-02-06T15:57:03.064Z,79.86
2023-02-06T15:58:34.807Z,80.55
2023-02-06T16:00:09.726Z,79.36
2023-02-06T16:01:41.532Z,80.17
2023-02-06T16:03:18.149Z,77.88
2023-02-06T16:04:53.886Z,79.39
2023-02-06T16:06:25.730Z,80.50
2023-02-06T16:07:58.868Z,78.95
2023-02-06T16:09:30.547Z,80.13
2023-02-06T16:11:28.130Z,79.87
2023-02-06T16:13:00.293Z,79.39
2023-02-06T16:14:33.970Z,79.06
2023-02-06T16:16:17.327Z,79.48
2023-02-06T16:17:49.154Z,78.08
2023-02-06T16:19:42.103Z,78.33
2023-02-06T16:21:25.499Z,77.45
2023-02-06T16:23:28.748Z,79.10
2023-02-06T16:25:20.999Z,76.93
2023-02-06T16:26:55.676Z,76.06
2023-02-06T16:28:30.141Z,77.15
2023-02-06T16:30:03.417Z,78.48
2023-02-06T16:31:36.232Z,78.04
2023-02-06T16:33:10.022Z,77.68
2023-02-06T16:34:44.859Z,78.11
2023-02-06T16:36:17.880Z,76.99
2023-02-06T16:37:53.272Z,77.63
2023-02-06T16:39:26.271Z,77.85
2023-02-06T16:40:58.603Z,78.61
2023-02-06T16:42:33.535Z,78.54
2023-02-06T16:44:07.147Z,76.49
2023-02-06T16:45:41.894Z,76.99
2023-02-06T16:47:20.304Z,75.61
2023-02-06T16:48:52.531Z,77.66
2023-02-06T16:50:24.174Z,76.63
2023-02-06T16:51:55.799Z,75.23
2023-02-06T16:53:27.483Z,75.18
2023-02-06T16:55:00.541Z,75.53
2023-02-06T16:56:32.151Z,76.86
2023-02-06T16:58:03.865Z,75.58
2023-02-06T16:59:35.535Z,76.74
2023-02-06T17:01:11.864Z,76.40
2023-02-06T17:02:44.926Z,77.70
2023-02-06T17:04:16.568Z,78.77
2023-02-06T17:05:48.624Z,77.60
2023-02-06T17:07:21.146Z,77.56
2023-02-06T17:08:54.008Z,77.47
2023-02-06T17:10:27.271Z,77.89
2023-02-06T17:11:58.917Z,77.83
2023-02-06T17:13:30.524Z,77.53
2023-02-06T17:15:02.229Z,77.88
2023-02-06T17:16:33.920Z,77.92
2023-02-06T17:18:05.584Z,76.17
2023-02-06T17:19:37.257Z,77.56
2023-02-06T17:21:11.009Z,79.09
2023-02-06T17:22:42.912Z,77.76
2023-02-06T17:24:14.545Z,78.57
2023-02-06T17:25:47.594Z,78.30
2023-02-06T17:27:19.942Z,77.82
2023-02-06T17:28:51.582Z,78.32
2023-02-06T17:30:23.785Z,77.79
2023-02-06T17:31:55.451Z,78.78
2023-02-06T17:33:27.068Z,78.29
2023-02-06T17:35:04.476Z,79.05
2023-02-06T17:36:39.575Z,77.00
2023-02-06T17:38:11.212Z,78.74
2023-02-06T17:39:42.831Z,77.70
2023-02-06T17:41:16.310Z,78.85
2023-02-06T17:42:55.385Z,78.84
2023-02-06T17:44:27.067Z,79.14
2023-02-06T17:45:59.077Z,78.63
2023-02-06T17:47:35.881Z,78.67
2023-02-06T17:49:11.690Z,78.01
2023-02-06T17:50:52.861Z,78.26
2023-02-06T17:52:24.473Z,78.56
2023-02-06T17:53:56.992Z,79.58
2023-02-06T17:55:28.729Z,78.88
2023-02-06T17:57:04.382Z,79.51
2023-02-06T17:58:35.978Z,79.39
2023-02-06T18:00:09.825Z,79.97
2023-02-06T18:01:42.645Z,79.89
2023-02-06T18:03:17.172Z,81.02
2023-02-06T18:04:49.895Z,80.34
2023-02-06T18:06:21.590Z,79.64
2023-02-06T18:07:53.337Z,80.01
2023-02-06T18:09:24.912Z,79.25
2023-02-06T18:10:56.779Z,80.19
2023-02-06T18:12:29.862Z,80.11
2023-02-06T18:14:01.597Z,80.37
2023-02-06T18:15:33.317Z,80.58
2023-02-06T18:17:10.945Z,80.73
2023-02-06T18:18:42.769Z,80.46
2023-02-06T18:20:14.682Z,80.37
2023-02-06T18:21:46.323Z,79.41
2023-02-06T18:23:19.577Z,80.29
2023-02-06T18:24:51.239Z,79.76
2023-02-06T18:26:25.506Z,80.88
2023-02-06T18:27:58.539Z,80.27
2023-02-06T18:29:40.170Z,80.16
2023-02-06T18:31:22.306Z,80.86
2023-02-06T18:32:53.929Z,79.21
2023-02-06T18:34:25.598Z,81.08
2023-02-06T18:35:57.311Z,79.96
2023-02-06T18:37:29.280Z,81.01
2023-02-06T18:39:01.122Z,81.32
2023-02-06T18:40:32.786Z,80.76
2023-02-06T18:42:23.552Z,80.12
2023-02-06T18:43:59.651Z,80.07
2023-02-06T18:45:34.513Z,80.00
2023-02-06T18:47:06.132Z,80.93
2023-02-06T18:48:37.804Z,81.03
2023-02-06T18:50:12.549Z,80.81
2023-02-06T18:51:44.225Z,80.54
2023-02-06T18:53:16.076Z,80.63
2023-02-06T18:54:48.803Z,81.59
2023-02-06T18:56:20.524Z,82.36
2023-02-06T18:57:52.228Z,82.28
2023-02-06T18:59:25.443Z,83.77
2023-02-06T19:00:57.116Z,83.31
2023-02-06T19:02:28.826Z,83.13
2023-02-06T19:04:00.580Z,83.77
2023-02-06T19:05:34.238Z,83.65
2023-02-06T19:07:05.927Z,83.49
2023-02-06T19:08:37.558Z,83.70
2023-02-06T19:10:10.428Z,84.01
2023-02-06T19:11:42.312Z,84.35
2023-02-06T19:13:14.004Z,84.78
2023-02-06T19:14:47.024Z,84.52
2023-02-06T19:16:19.299Z,85.38
2023-02-06T19:17:51.508Z,85.73
2023-02-06T19:19:23.289Z,87.76
2023-02-06T19:20:54.970Z,88.00
2023-02-06T19:22:26.663Z,87.15
2023-02-06T19:23:59.159Z,88.31
2023-02-06T19:25:30.809Z,89.17
2023-02-06T19:27:02.598Z,89.62
2023-02-06T19:28:35.687Z,88.97
2023-02-06T19:30:10.114Z,89.64
2023-02-06T19:31:42.810Z,89.59
2023-02-06T19:33:14.514Z,90.02
2023-02-06T19:34:49.112Z,90.84
2023-02-06T19:36:24.023Z,91.03
2023-02-06T19:37:55.632Z,90.95
2023-02-06T19:39:27.380Z,90.50
2023-02-06T19:41:06.780Z,90.14
2023-02-06T19:42:39.049Z,90.18
2023-02-06T19:44:13.136Z,90.17
2023-02-06T19:45:46.279Z,89.51
2023-02-06T19:47:18.034Z,89.76
2023-02-06T19:48:50.110Z,90.14
2023-02-06T19:50:22.276Z,90.04
2023-02-06T19:51:53.977Z,88.91
2023-02-06T19:53:25.563Z,89.80
2023-02-06T19:54:58.485Z,89.12
2023-02-06T19:56:34.533Z,89.09
2023-02-06T19:58:06.271Z,89.18
2023-02-06T19:59:37.980Z,88.49
2023-02-06T20:01:15.554Z,88.33
2023-02-06T20:02:47.199Z,88.50
2023-02-06T20:04:19.353Z,87.59
2023-02-06T20:05:51.069Z,89.17
2023-02-06T20:07:25.121Z,88.47
2023-02-06T20:08:56.816Z,89.47
2023-02-06T20:10:28.493Z,89.29
2023-02-06T20:12:00.379Z,89.55
2023-02-06T20:13:31.996Z,88.99
2023-02-06T20:15:04.213Z,88.57
2023-02-06T20:16:39.376Z,88.85
2023-02-06T20:18:11.033Z,88.47
2023-02-06T20:19:42.752Z,88.46
2023-02-06T20:21:22.723Z,88.93